Time;durP1;ratioP1;P1;durP2;ratioP2;P2;SDS_P1;SDS_P2;PMS_P1;PMS_P2;Temp;Humidity;BMP_temperature;BMP_pressure;BME280_temperature;BME280_humidity;BME280_pressure;Samples;Min_cycle;Max_cycle;Signal;HPM_P1;HPM_P2
2023/08/19 00:00:57;;;;;;;9.30;7.33;;;23.90;99.90;;;;;;5033953;28;20456;-74
2023/08/19 00:03:23;;;;;;;7.50;6.60;;;23.90;99.90;;;;;;5044182;28;20187;-74
2023/08/19 00:05:48;;;;;;;8.27;7.47;;;23.80;99.90;;;;;;5052658;28;20413;-74
2023/08/19 00:08:14;;;;;;;7.93;6.70;;;23.70;99.90;;;;;;5054190;28;20191;-74
2023/08/19 00:10:40;;;;;;;8.20;7.30;;;23.70;99.90;;;;;;5053310;28;20203;-74
2023/08/19 00:13:06;;;;;;;7.70;7.00;;;23.60;99.90;;;;;;5054172;28;20183;-74
2023/08/19 00:15:32;;;;;;;8.50;6.90;;;23.60;99.90;;;;;;5053914;28;20462;-74
2023/08/19 00:18:00;;;;;;;8.20;7.47;;;23.50;99.90;;;;;;5053152;28;20945;-74
2023/08/19 00:20:29;;;;;;;7.53;6.87;;;23.50;99.90;;;;;;5043503;28;20989;-74
2023/08/19 00:22:58;;;;;;;7.27;6.60;;;23.50;99.90;;;;;;5034040;28;20486;-74
2023/08/19 00:25:27;;;;;;;9.23;6.17;;;23.40;99.90;;;;;;5033881;28;20433;-74
2023/08/19 00:27:53;;;;;;;8.63;7.20;;;23.30;99.90;;;;;;5034694;28;21737;-74
2023/08/19 00:30:19;;;;;;;7.07;6.37;;;23.20;99.90;;;;;;5051252;28;20445;-74
2023/08/19 00:32:46;;;;;;;8.73;7.93;;;23.10;99.90;;;;;;5053710;28;20195;-74
2023/08/19 00:35:13;;;;;;;7.30;6.70;;;23.10;99.90;;;;;;5053529;28;20414;-74
2023/08/19 00:37:38;;;;;;;6.23;5.63;;;23.10;99.90;;;;;;5053801;28;20985;-74
2023/08/19 00:40:05;;;;;;;11.80;6.40;;;23.10;99.90;;;;;;5053783;28;20484;-74
2023/08/19 00:42:30;;;;;;;6.90;5.57;;;23.10;99.90;;;;;;5052373;28;20616;-75
2023/08/19 00:44:56;;;;;;;6.17;5.67;;;23.00;99.90;;;;;;5053475;28;20409;-74
2023/08/19 00:47:23;;;;;;;6.40;5.87;;;23.00;99.90;;;;;;5039392;28;20228;-74
2023/08/19 00:49:49;;;;;;;9.80;6.33;;;23.00;99.90;;;;;;5033667;28;20191;-75
2023/08/19 00:52:15;;;;;;;7.07;6.37;;;22.90;99.90;;;;;;5033493;28;20441;-75
2023/08/19 00:54:41;;;;;;;7.53;6.73;;;22.90;99.90;;;;;;5033597;28;20257;-76
2023/08/19 00:57:07;;;;;;;10.03;7.23;;;22.90;99.90;;;;;;5031898;28;20453;-76
2023/08/19 00:59:33;;;;;;;7.03;6.33;;;22.80;99.90;;;;;;5032130;28;20442;-76
2023/08/19 01:01:58;;;;;;;7.03;5.40;;;22.80;99.90;;;;;;5033429;28;20525;-73
2023/08/19 01:04:24;;;;;;;6.13;5.30;;;22.80;99.90;;;;;;5033348;28;20269;-76
2023/08/19 01:06:58;;;;;;;6.47;5.87;;;22.80;99.90;;;;;;5033037;28;20523;-76
2023/08/19 01:09:47;;;;;;;8.13;6.20;;;22.70;99.90;;;;;;5033187;28;20433;-75
2023/08/19 01:12:41;;;;;;;7.90;6.27;;;22.70;99.90;;;;;;5033181;28;20506;-76
2023/08/19 01:15:13;;;;;;;6.80;6.20;;;22.60;99.90;;;;;;5032951;28;20764;-75
2023/08/19 01:17:40;;;;;;;7.87;6.30;;;22.60;99.90;;;;;;5033177;28;20413;-76
2023/08/19 01:20:09;;;;;;;6.50;5.37;;;22.60;99.90;;;;;;5033000;28;20403;-77
2023/08/19 01:22:49;;;;;;;8.30;6.33;;;22.60;99.90;;;;;;5036097;28;20532;-77
2023/08/19 01:25:15;;;;;;;6.90;6.20;;;22.60;99.90;;;;;;5052572;28;20912;-76
2023/08/19 01:27:41;;;;;;;6.60;5.70;;;22.60;99.90;;;;;;5048712;28;20461;-75
2023/08/19 01:30:07;;;;;;;6.50;5.80;;;22.50;99.90;;;;;;5050718;28;20445;-76
2023/08/19 01:32:32;;;;;;;7.27;5.80;;;22.40;99.90;;;;;;5052563;28;20812;-76
2023/08/19 01:34:58;;;;;;;6.10;5.50;;;22.40;99.90;;;;;;5044164;28;20445;-76
2023/08/19 01:37:32;;;;;;;7.00;6.30;;;22.40;99.90;;;;;;5052730;28;20190;-76
2023/08/19 01:39:59;;;;;;;6.37;5.50;;;22.30;99.90;;;;;;5052609;28;20170;-76
2023/08/19 01:42:25;;;;;;;10.60;6.43;;;22.20;99.90;;;;;;5052100;28;20531;-76
2023/08/19 01:44:53;;;;;;;7.10;6.50;;;22.10;99.90;;;;;;5052041;28;20459;-76
2023/08/19 01:47:18;;;;;;;6.40;5.80;;;22.20;99.90;;;;;;5039155;28;20468;-76
2023/08/19 01:49:44;;;;;;;9.00;6.97;;;22.20;99.90;;;;;;5032397;28;20462;-76
2023/08/19 01:52:11;;;;;;;6.50;5.73;;;22.20;99.90;;;;;;5032445;28;20187;-76
2023/08/19 01:54:37;;;;;;;7.03;5.90;;;22.20;99.90;;;;;;5032400;28;20394;-77
2023/08/19 01:57:03;;;;;;;10.33;5.90;;;22.20;99.90;;;;;;5032187;28;20410;-76
2023/08/19 01:59:28;;;;;;;5.87;5.20;;;22.10;99.90;;;;;;5031067;28;20711;-77
2023/08/19 02:01:54;;;;;;;7.13;6.33;;;22.10;99.90;;;;;;5030949;28;20528;-76
2023/08/19 02:04:19;;;;;;;4.70;4.30;;;22.10;99.90;;;;;;5032247;28;20179;-74
2023/08/19 02:06:45;;;;;;;6.07;5.13;;;22.10;99.90;;;;;;5031887;28;20176;-77
2023/08/19 02:09:10;;;;;;;5.93;5.20;;;22.10;99.90;;;;;;5032265;28;20199;-76
2023/08/19 02:11:36;;;;;;;7.33;6.17;;;22.10;99.90;;;;;;5032312;28;20215;-76
2023/08/19 02:14:01;;;;;;;7.53;5.30;;;22.10;99.90;;;;;;5030993;28;20167;-76
2023/08/19 02:16:27;;;;;;;7.73;5.23;;;22.10;99.90;;;;;;5031775;28;20602;-75
2023/08/19 02:18:52;;;;;;;6.57;5.37;;;22.10;99.90;;;;;;5032344;28;20220;-76
2023/08/19 02:21:18;;;;;;;7.83;5.90;;;22.10;99.90;;;;;;5032002;28;20201;-74
2023/08/19 02:23:43;;;;;;;6.27;5.43;;;22.20;99.90;;;;;;5044250;28;20198;-76
2023/08/19 02:26:09;;;;;;;7.83;6.90;;;22.10;99.90;;;;;;5051632;28;20532;-76
2023/08/19 02:28:34;;;;;;;7.03;6.33;;;22.10;99.90;;;;;;5043161;28;20175;-75
2023/08/19 02:31:01;;;;;;;5.07;4.57;;;22.10;99.90;;;;;;5044291;28;20198;-75
2023/08/19 02:33:27;;;;;;;6.10;5.50;;;22.20;99.90;;;;;;5051276;28;20163;-76
2023/08/19 02:35:52;;;;;;;10.40;6.17;;;22.20;99.90;;;;;;5051309;28;20405;-75
2023/08/19 02:38:18;;;;;;;11.30;5.30;;;22.20;99.90;;;;;;5051915;28;20160;-76
2023/08/19 02:40:49;;;;;;;4.97;4.50;;;22.20;99.90;;;;;;5051778;28;20190;-75
2023/08/19 02:43:15;;;;;;;6.07;5.47;;;22.30;99.90;;;;;;5051828;28;20531;-76
2023/08/19 02:45:41;;;;;;;6.30;4.90;;;22.30;99.90;;;;;;5051684;28;20488;-74
2023/08/19 02:48:07;;;;;;;6.83;5.70;;;22.40;99.90;;;;;;5051671;28;20413;-74
2023/08/19 02:50:33;;;;;;;5.20;4.70;;;22.40;99.90;;;;;;5051631;28;20559;-76
2023/08/19 02:52:58;;;;;;;5.63;4.30;;;22.40;99.90;;;;;;5051727;28;20261;-77
2023/08/19 02:55:24;;;;;;;5.27;4.53;;;22.40;99.90;;;;;;5050180;28;20178;-76
2023/08/19 02:57:49;;;;;;;5.33;4.33;;;22.50;99.90;;;;;;5051604;28;20574;-75
2023/08/19 03:00:15;;;;;;;10.53;5.63;;;22.50;99.90;;;;;;5051579;28;20198;-74
2023/08/19 03:02:45;;;;;;;9.70;5.10;;;22.50;99.90;;;;;;5051333;28;20241;-74
2023/08/19 03:05:10;;;;;;;7.90;5.43;;;22.50;99.90;;;;;;5051412;28;20690;-76
2023/08/19 03:07:36;;;;;;;4.93;4.43;;;22.50;99.90;;;;;;5051318;28;20429;-75
2023/08/19 03:10:01;;;;;;;6.23;4.97;;;22.40;99.90;;;;;;5051534;28;20609;-74
2023/08/19 03:12:27;;;;;;;5.20;4.43;;;22.30;99.90;;;;;;5050137;28;20240;-76
2023/08/19 03:14:52;;;;;;;7.70;5.23;;;22.30;99.90;;;;;;5051472;28;20167;-76
2023/08/19 03:17:19;;;;;;;5.77;5.17;;;22.30;99.90;;;;;;5050580;28;20163;-76
2023/08/19 03:19:45;;;;;;;5.10;4.70;;;22.30;99.90;;;;;;5050630;28;20175;-76
2023/08/19 03:22:10;;;;;;;5.63;4.63;;;22.30;99.90;;;;;;5051257;28;20425;-76
2023/08/19 03:24:36;;;;;;;5.60;4.00;;;22.30;99.90;;;;;;5032367;28;20174;-75
2023/08/19 03:27:01;;;;;;;6.63;3.87;;;22.40;99.90;;;;;;5030905;28;20233;-76
2023/08/19 03:29:27;;;;;;;5.57;4.90;;;22.40;99.90;;;;;;5040621;28;20257;-77
2023/08/19 03:31:52;;;;;;;5.40;4.80;;;22.40;99.90;;;;;;5044524;28;20191;-75
2023/08/19 03:34:18;;;;;;;7.33;5.63;;;22.50;99.90;;;;;;5050970;28;20574;-75
2023/08/19 03:36:43;;;;;;;7.60;4.70;;;22.40;99.90;;;;;;5050885;28;20171;-76
2023/08/19 03:39:09;;;;;;;5.00;4.50;;;22.30;99.90;;;;;;5051114;28;20163;-77
2023/08/19 03:41:34;;;;;;;6.57;4.57;;;22.30;99.90;;;;;;5051016;28;20183;-75
2023/08/19 03:44:00;;;;;;;6.93;5.17;;;22.20;99.90;;;;;;5051064;28;20163;-77
2023/08/19 03:46:25;;;;;;;10.10;4.70;;;22.20;99.90;;;;;;5049531;28;20168;-76
2023/08/19 03:48:51;;;;;;;8.30;4.30;;;22.30;99.90;;;;;;5034772;28;20168;-76
2023/08/19 03:51:16;;;;;;;5.77;5.00;;;22.40;99.90;;;;;;5034810;28;20207;-75
2023/08/19 03:53:42;;;;;;;5.20;4.70;;;22.40;99.90;;;;;;5034644;28;20210;-75
2023/08/19 03:56:07;;;;;;;5.37;4.83;;;22.40;99.90;;;;;;5033923;28;20186;-76
2023/08/19 03:58:33;;;;;;;6.63;5.80;;;22.40;99.90;;;;;;5033289;28;20550;-76
2023/08/19 04:01:08;;;;;;;4.90;4.50;;;22.30;99.90;;;;;;5034543;28;20172;-76
2023/08/19 04:03:34;;;;;;;4.80;4.40;;;22.30;99.90;;;;;;5034552;28;20252;-76
2023/08/19 04:05:59;;;;;;;5.97;4.90;;;22.30;99.90;;;;;;5034207;28;20469;-77
2023/08/19 04:08:25;;;;;;;5.20;4.53;;;22.30;99.90;;;;;;5034350;28;20422;-75
2023/08/19 04:10:51;;;;;;;6.60;5.23;;;22.40;99.90;;;;;;5034278;28;20272;-75
2023/08/19 04:13:17;;;;;;;5.73;4.10;;;22.30;99.90;;;;;;5034789;28;20426;-75
2023/08/19 04:15:43;;;;;;;5.20;4.23;;;22.30;99.90;;;;;;5045540;28;20255;-75
2023/08/19 04:18:10;;;;;;;4.53;3.77;;;22.30;99.90;;;;;;5055532;28;20496;-76
2023/08/19 04:20:38;;;;;;;6.00;5.33;;;22.30;99.90;;;;;;5054116;28;20206;-77
2023/08/19 04:23:04;;;;;;;5.37;4.13;;;22.10;99.90;;;;;;5053992;28;20434;-75
2023/08/19 04:25:30;;;;;;;5.33;4.83;;;22.00;99.90;;;;;;5052418;28;20435;-75
2023/08/19 04:27:55;;;;;;;5.20;4.70;;;21.90;99.90;;;;;;5048986;28;20434;-75
2023/08/19 04:30:21;;;;;;;6.53;4.83;;;21.90;99.90;;;;;;5033861;28;20199;-76
2023/08/19 04:32:46;;;;;;;5.80;5.07;;;21.80;99.90;;;;;;5043874;28;20192;-76
2023/08/19 04:35:12;;;;;;;11.50;4.93;;;21.70;99.90;;;;;;5053295;28;20675;-76
2023/08/19 04:37:37;;;;;;;6.53;4.63;;;21.70;99.90;;;;;;5053663;28;20603;-74
2023/08/19 04:40:09;;;;;;;7.40;4.90;;;21.70;99.90;;;;;;5053710;28;20640;-76
2023/08/19 04:42:35;;;;;;;7.57;4.60;;;21.70;99.90;;;;;;5052474;28;20201;-76
2023/08/19 04:45:00;;;;;;;7.50;4.80;;;21.80;99.90;;;;;;5049927;28;20525;-75
2023/08/19 04:47:26;;;;;;;4.77;4.37;;;21.80;99.90;;;;;;5040928;28;20508;-76
2023/08/19 04:49:51;;;;;;;4.90;4.43;;;21.90;99.90;;;;;;5050545;28;20195;-76
2023/08/19 04:52:17;;;;;;;9.37;5.43;;;21.90;99.90;;;;;;5052187;28;20187;-76
2023/08/19 04:54:42;;;;;;;7.10;5.30;;;21.90;99.90;;;;;;5052357;28;20167;-76
2023/08/19 04:57:08;;;;;;;6.33;4.67;;;21.90;99.90;;;;;;5052763;28;20253;-75
2023/08/19 04:59:34;;;;;;;5.57;4.93;;;22.00;99.90;;;;;;5053458;28;20178;-77
2023/08/19 05:02:00;;;;;;;6.53;4.73;;;22.10;99.90;;;;;;5053476;28;20260;-76
2023/08/19 05:04:25;;;;;;;4.90;4.37;;;22.20;99.90;;;;;;5053376;28;20159;-76
2023/08/19 05:06:51;;;;;;;8.73;5.27;;;22.30;99.90;;;;;;5051589;28;20437;-77
2023/08/19 05:09:17;;;;;;;6.90;4.33;;;22.40;99.90;;;;;;5053236;28;20194;-76
2023/08/19 05:11:43;;;;;;;5.60;4.20;;;22.60;99.90;;;;;;5053153;28;20270;-76
2023/08/19 05:14:08;;;;;;;5.43;4.93;;;22.70;99.90;;;;;;5053322;28;20485;-74
2023/08/19 05:16:34;;;;;;;5.67;4.60;;;22.80;99.90;;;;;;5052771;28;20213;-76
2023/08/19 05:19:16;;;;;;;6.07;5.27;;;22.90;99.90;;;;;;5051842;28;20213;-75
2023/08/19 05:21:42;;;;;;;4.43;3.70;;;22.90;99.90;;;;;;5052949;28;20210;-76
2023/08/19 05:24:10;;;;;;;4.97;4.07;;;23.00;99.90;;;;;;5037221;28;20446;-76
2023/08/19 05:26:36;;;;;;;8.33;5.73;;;23.20;99.90;;;;;;5031018;28;20175;-77
2023/08/19 05:29:01;;;;;;;6.77;5.07;;;23.30;99.90;;;;;;5037860;28;21021;-77
2023/08/19 05:31:27;;;;;;;7.57;5.67;;;23.30;99.90;;;;;;5034767;28;20215;-76
2023/08/19 05:33:53;;;;;;;5.30;4.90;;;23.30;99.90;;;;;;5042995;28;20250;-77
2023/08/19 05:36:18;;;;;;;10.57;4.97;;;23.50;99.90;;;;;;5051425;28;20257;-77
2023/08/19 05:38:44;;;;;;;9.97;5.90;;;23.40;99.90;;;;;;5052920;28;20182;-77
2023/08/19 05:41:09;;;;;;;6.13;4.80;;;23.50;99.90;;;;;;5052943;28;20195;-76
2023/08/19 05:43:35;;;;;;;4.80;4.40;;;23.40;99.90;;;;;;5053202;28;20171;-74
2023/08/19 05:46:04;;;;;;;6.07;5.47;;;23.50;99.90;;;;;;5052832;28;20200;-77
2023/08/19 05:48:30;;;;;;;4.83;4.43;;;23.50;99.90;;;;;;5052882;28;20533;-76
2023/08/19 05:50:55;;;;;;;9.03;5.57;;;23.50;99.90;;;;;;5050970;28;20449;-75
2023/08/19 05:53:21;;;;;;;6.53;5.10;;;23.40;99.90;;;;;;5052271;28;20173;-76
2023/08/19 05:55:47;;;;;;;5.23;4.50;;;23.50;99.90;;;;;;5052241;28;20242;-76
2023/08/19 05:58:13;;;;;;;8.57;5.20;;;23.50;99.90;;;;;;5044969;28;20167;-78
2023/08/19 06:00:39;;;;;;;6.77;5.13;;;23.60;99.90;;;;;;5033079;28;20471;-72
2023/08/19 06:03:04;;;;;;;4.33;3.60;;;23.70;99.90;;;;;;5041675;28;20214;-72
2023/08/19 06:05:30;;;;;;;7.87;4.67;;;23.80;99.90;;;;;;5049688;28;20175;-73
2023/08/19 06:07:55;;;;;;;6.90;5.00;;;23.90;99.90;;;;;;5051275;28;20243;-72
2023/08/19 06:10:21;;;;;;;7.00;5.07;;;24.00;99.90;;;;;;5052221;28;20202;-72
2023/08/19 06:12:46;;;;;;;6.70;4.73;;;24.10;99.90;;;;;;5052057;28;20659;-71
2023/08/19 06:15:12;;;;;;;4.17;3.87;;;24.20;99.90;;;;;;5051875;28;20173;-72
2023/08/19 06:17:38;;;;;;;4.40;4.03;;;24.20;99.90;;;;;;5052176;28;20191;-73
2023/08/19 06:20:04;;;;;;;5.57;5.07;;;24.40;99.90;;;;;;5052083;28;20199;-72
2023/08/19 06:22:29;;;;;;;5.00;4.40;;;24.40;99.90;;;;;;5051795;28;20191;-72
2023/08/19 06:24:54;;;;;;;5.93;5.30;;;24.60;99.90;;;;;;5051826;28;20774;-72
2023/08/19 06:27:20;;;;;;;7.90;6.50;;;24.70;99.90;;;;;;5051840;28;20167;-72
2023/08/19 06:29:45;;;;;;;4.43;4.00;;;24.80;99.90;;;;;;5041289;28;20210;-73
2023/08/19 06:32:11;;;;;;;7.03;5.13;;;24.90;99.90;;;;;;5036763;28;20198;-71
2023/08/19 06:34:37;;;;;;;4.70;4.30;;;25.10;99.90;;;;;;5040854;28;20201;-72
2023/08/19 06:37:04;;;;;;;5.93;4.37;;;25.20;99.90;;;;;;5051137;28;20420;-71
2023/08/19 06:39:32;;;;;;;5.90;4.80;;;25.30;99.90;;;;;;5051794;28;20236;-72
2023/08/19 06:42:03;;;;;;;7.20;4.83;;;25.40;99.90;;;;;;5051729;28;20480;-72
2023/08/19 06:44:30;;;;;;;6.00;4.10;;;25.30;99.90;;;;;;5050464;28;20413;-71
2023/08/19 06:46:57;;;;;;;3.80;3.40;;;25.30;99.90;;;;;;5051425;28;20466;-72
2023/08/19 06:49:23;;;;;;;4.63;4.33;;;25.40;99.90;;;;;;5051546;28;20438;-72
2023/08/19 06:51:49;;;;;;;6.90;4.13;;;25.30;99.90;;;;;;5051610;28;20417;-73
2023/08/19 06:54:15;;;;;;;9.43;4.00;;;25.20;99.90;;;;;;5051681;28;20923;-72
2023/08/19 06:56:52;;;;;;;7.33;5.00;;;25.40;99.90;;;;;;5051383;28;20398;-72
2023/08/19 06:59:32;;;;;;;5.33;4.83;;;25.60;99.90;;;;;;5044830;28;20967;-72
2023/08/19 07:02:01;;;;;;;9.03;4.30;;;25.70;99.90;;;;;;5046834;28;20453;-72
2023/08/19 07:04:27;;;;;;;7.33;5.70;;;25.90;99.90;;;;;;5039244;28;20421;-71
2023/08/19 07:06:58;;;;;;;7.00;4.53;;;25.90;99.90;;;;;;5032596;28;20452;-72
2023/08/19 07:09:24;;;;;;;6.37;3.87;;;26.10;99.90;;;;;;5044120;28;20502;-72
2023/08/19 07:11:52;;;;;;;3.97;3.57;;;26.30;99.90;;;;;;5043096;28;20949;-73
2023/08/19 07:14:18;;;;;;;3.47;3.17;;;26.60;99.90;;;;;;5040644;28;20418;-73
2023/08/19 07:16:45;;;;;;;3.70;3.30;;;27.00;99.90;;;;;;5040960;28;20416;-72
2023/08/19 07:19:14;;;;;;;5.87;4.20;;;27.30;99.90;;;;;;5048825;28;20678;-73
2023/08/19 07:21:41;;;;;;;9.60;5.20;;;27.90;99.90;;;;;;5055175;28;20428;-72
2023/08/19 07:24:07;;;;;;;3.60;3.30;;;28.20;99.90;;;;;;5055262;28;20493;-72
2023/08/19 07:26:34;;;;;;;4.20;3.80;;;28.00;99.90;;;;;;5055024;28;20797;-73
2023/08/19 07:29:00;;;;;;;4.50;3.60;;;28.10;99.90;;;;;;5044163;28;20426;-71
2023/08/19 07:31:26;;;;;;;4.33;3.70;;;28.10;99.90;;;;;;5043170;28;20523;-71
2023/08/19 07:33:51;;;;;;;6.03;3.90;;;28.10;99.90;;;;;;5051251;28;20405;-72
2023/08/19 07:36:17;;;;;;;5.87;4.13;;;28.20;99.90;;;;;;5043037;28;20532;-73
2023/08/19 07:38:43;;;;;;;4.03;3.73;;;28.50;99.90;;;;;;5054820;28;20542;-72
2023/08/19 07:41:08;;;;;;;5.87;4.30;;;28.90;99.90;;;;;;5047749;28;20253;-73
2023/08/19 07:43:34;;;;;;;4.10;3.70;;;29.50;99.90;;;;;;5046408;28;20631;-72
2023/08/19 07:46:00;;;;;;;4.70;3.60;;;29.40;99.90;;;;;;5045826;28;20183;-72
2023/08/19 07:48:25;;;;;;;5.37;3.40;;;29.50;99.90;;;;;;5054719;28;20177;-72
2023/08/19 07:50:51;;;;;;;4.20;3.70;;;29.60;99.90;;;;;;5048302;28;20246;-73
2023/08/19 07:53:16;;;;;;;5.63;3.90;;;29.40;99.90;;;;;;5054525;28;20167;-71
2023/08/19 07:55:42;;;;;;;4.10;3.70;;;29.30;99.90;;;;;;5054269;28;20167;-72
2023/08/19 07:58:08;;;;;;;4.37;3.30;;;29.40;99.90;;;;;;5046176;28;20167;-73
2023/08/19 08:00:33;;;;;;;5.57;3.77;;;29.50;99.90;;;;;;5054297;28;20171;-72
2023/08/19 08:02:59;;;;;;;3.73;3.40;;;29.40;99.90;;;;;;5053184;28;20195;-72
2023/08/19 08:05:24;;;;;;;5.50;3.60;;;29.20;99.90;;;;;;5054279;28;20221;-72
2023/08/19 08:07:50;;;;;;;5.70;3.90;;;28.90;99.90;;;;;;5054356;28;20605;-72
2023/08/19 08:10:16;;;;;;;3.83;3.30;;;28.80;99.90;;;;;;5054401;28;20244;-73
2023/08/19 08:12:41;;;;;;;5.93;3.50;;;28.60;99.90;;;;;;5054264;28;20190;-72
2023/08/19 08:15:08;;;;;;;4.63;4.03;;;28.30;99.90;;;;;;5052743;28;20167;-72
2023/08/19 08:17:34;;;;;;;6.30;4.33;;;28.10;99.90;;;;;;5054235;28;20575;-72
2023/08/19 08:19:59;;;;;;;4.97;4.47;;;28.00;99.90;;;;;;5054402;28;20405;-72
2023/08/19 08:22:25;;;;;;;4.53;3.23;;;28.00;99.90;;;;;;5036206;28;20187;-71
2023/08/19 08:24:51;;;;;;;4.50;4.10;;;28.10;99.90;;;;;;5041158;28;20180;-72
2023/08/19 08:27:16;;;;;;;3.80;3.20;;;28.10;99.90;;;;;;5052866;28;20694;-72
2023/08/19 08:29:42;;;;;;;5.27;3.73;;;28.30;99.90;;;;;;5044527;28;20199;-72
2023/08/19 08:32:09;;;;;;;4.50;4.10;;;28.50;99.90;;;;;;5051260;28;20193;-72
2023/08/19 08:34:34;;;;;;;4.40;3.87;;;28.70;99.90;;;;;;5053897;28;20202;-73
2023/08/19 08:37:00;;;;;;;4.63;3.97;;;29.00;99.90;;;;;;5052641;28;20437;-72
2023/08/19 08:39:25;;;;;;;3.93;3.50;;;29.30;99.90;;;;;;5053865;28;20620;-71
2023/08/19 08:41:52;;;;;;;4.10;3.63;;;29.60;99.90;;;;;;5053715;28;20209;-73
2023/08/19 08:44:18;;;;;;;4.30;3.73;;;29.70;99.90;;;;;;5052728;28;20175;-71
2023/08/19 08:46:47;;;;;;;6.13;3.93;;;29.90;99.90;;;;;;5047058;28;20429;-72
2023/08/19 08:49:13;;;;;;;4.97;3.60;;;30.20;99.90;;;;;;5050330;28;20471;-72
2023/08/19 08:51:40;;;;;;;4.00;3.70;;;30.30;99.90;;;;;;5044753;28;20930;-73
2023/08/19 08:54:06;;;;;;;8.43;4.60;;;30.20;99.90;;;;;;5053494;28;20475;-72
2023/08/19 08:56:31;;;;;;;5.33;4.80;;;30.50;99.90;;;;;;5047930;28;20501;-73
2023/08/19 08:58:58;;;;;;;5.70;4.17;;;30.50;99.90;;;;;;5046888;28;20842;-72
2023/08/19 09:01:25;;;;;;;5.63;4.67;;;30.60;99.90;;;;;;5044505;28;20204;-72
2023/08/19 09:03:55;;;;;;;6.00;5.40;;;30.80;99.90;;;;;;5042910;28;20473;-73
2023/08/19 09:06:21;;;;;;;4.30;3.90;;;31.10;99.90;;;;;;5041401;28;20470;-72
2023/08/19 09:08:58;;;;;;;7.30;4.40;;;31.30;99.90;;;;;;5047145;28;20418;-72
2023/08/19 09:11:26;;;;;;;4.90;4.50;;;31.60;99.90;;;;;;5053249;28;20202;-73
2023/08/19 09:13:59;;;;;;;4.77;4.37;;;32.20;99.90;;;;;;5043699;28;20422;-73
2023/08/19 09:16:25;;;;;;;4.90;3.83;;;32.80;99.90;;;;;;5048762;28;20432;-72
2023/08/19 09:18:51;;;;;;;6.73;4.43;;;33.30;99.90;;;;;;5045831;28;20423;-73
2023/08/19 09:21:17;;;;;;;6.17;4.50;;;34.00;99.90;;;;;;5052862;28;20187;-72
2023/08/19 09:23:42;;;;;;;4.80;4.30;;;34.60;96.70;;;;;;5045093;28;20430;-73
2023/08/19 09:26:10;;;;;;;5.40;3.83;;;35.10;91.30;;;;;;5044747;28;20174;-73
2023/08/19 09:28:36;;;;;;;5.37;4.07;;;35.20;86.80;;;;;;5046895;28;20183;-73
2023/08/19 09:31:18;;;;;;;4.90;4.50;;;35.30;84.80;;;;;;5051709;28;20546;-73
2023/08/19 09:33:43;;;;;;;5.23;4.30;;;35.30;84.00;;;;;;5052824;28;20766;-72
2023/08/19 09:36:09;;;;;;;4.43;3.80;;;35.30;82.30;;;;;;5047195;28;20411;-72
2023/08/19 09:38:35;;;;;;;6.20;5.00;;;35.30;82.70;;;;;;5049333;28;20659;-73
2023/08/19 09:41:03;;;;;;;7.27;4.67;;;35.10;79.30;;;;;;5038290;28;20636;-73
2023/08/19 09:43:29;;;;;;;6.10;4.80;;;35.00;81.70;;;;;;5052284;28;20243;-72
2023/08/19 09:45:59;;;;;;;8.10;4.23;;;35.10;81.00;;;;;;5051981;28;20436;-72
2023/08/19 09:48:25;;;;;;;4.70;3.93;;;35.70;81.50;;;;;;5052469;28;20428;-73
2023/08/19 09:50:51;;;;;;;4.80;4.37;;;37.20;80.10;;;;;;5052295;28;20449;-74
2023/08/19 09:53:17;;;;;;;5.00;4.60;;;39.20;68.50;;;;;;5052454;28;20437;-74
2023/08/19 09:55:49;;;;;;;5.10;4.60;;;42.10;58.90;;;;;;5052230;28;20201;-74
2023/08/19 09:58:15;;;;;;;5.03;4.63;;;43.60;51.20;;;;;;5052388;28;20389;-74
2023/08/19 10:00:42;;;;;;;5.03;4.47;;;45.20;47.70;;;;;;5052384;28;20759;-74
2023/08/19 10:03:07;;;;;;;4.80;4.30;;;46.80;41.70;;;;;;5052104;28;20403;-74
2023/08/19 10:05:40;;;;;;;4.70;4.40;;;47.00;40.50;;;;;;5051993;28;20518;-74
2023/08/19 10:08:13;;;;;;;4.27;3.97;;;46.30;38.80;;;;;;5052120;28;20179;-71
2023/08/19 10:10:42;;;;;;;3.63;3.40;;;45.20;39.40;;;;;;5052130;28;20439;-73
2023/08/19 10:13:15;;;;;;;4.30;4.00;;;44.60;41.50;;;;;;5052071;28;20799;-74
2023/08/19 10:15:42;;;;;;;5.37;4.93;;;44.40;43.20;;;;;;5051777;28;20383;-71
2023/08/19 10:18:16;;;;;;;6.37;3.73;;;45.80;42.30;;;;;;5052137;28;20378;-72
2023/08/19 10:20:43;;;;;;;5.23;4.73;;;48.20;39.60;;;;;;5052102;28;20748;-72
2023/08/19 10:23:10;;;;;;;5.57;5.07;;;51.40;39.40;;;;;;5052036;28;20433;-72
2023/08/19 10:25:39;;;;;;;5.30;4.90;;;54.00;34.80;;;;;;5050459;28;20444;-72
2023/08/19 10:28:11;;;;;;;6.00;5.50;;;56.20;32.30;;;;;;5051843;28;20424;-72
2023/08/19 10:30:37;;;;;;;5.90;5.40;;;58.30;29.40;;;;;;5051800;28;20491;-72
2023/08/19 10:33:05;;;;;;;5.90;5.37;;;58.80;26.80;;;;;;5051817;28;20413;-72
2023/08/19 10:35:57;;;;;;;6.17;5.57;;;58.60;25.80;;;;;;5051678;28;20417;-72
2023/08/19 10:38:23;;;;;;;5.40;4.97;;;56.80;25.60;;;;;;5051917;28;20409;-71
2023/08/19 10:41:01;;;;;;;5.93;5.00;;;55.70;27.10;;;;;;5051784;28;20416;-71
2023/08/19 10:43:27;;;;;;;5.03;4.73;;;55.70;27.30;;;;;;5050577;28;20573;-71
2023/08/19 10:45:57;;;;;;;5.33;4.93;;;54.90;25.90;;;;;;5051596;28;20405;-71
2023/08/19 10:48:32;;;;;;;4.97;4.57;;;53.20;26.00;;;;;;5051822;28;20167;-71
2023/08/19 10:50:58;;;;;;;4.50;4.20;;;52.10;27.70;;;;;;5047869;28;20481;-71
2023/08/19 10:53:24;;;;;;;5.30;4.73;;;50.70;29.10;;;;;;5041601;28;20513;-71
2023/08/19 10:55:53;;;;;;;9.90;4.63;;;48.70;28.60;;;;;;5048609;28;20604;-71
2023/08/19 10:58:21;;;;;;;5.33;4.93;;;47.80;30.90;;;;;;5054409;28;20403;-71
2023/08/19 11:00:48;;;;;;;10.07;5.30;;;46.90;32.30;;;;;;5054297;28;20935;-74
2023/08/19 11:03:15;;;;;;;9.37;6.63;;;46.10;33.40;;;;;;5055512;28;20439;-71
2023/08/19 11:05:52;;;;;;;5.70;5.03;;;45.30;34.60;;;;;;5046890;28;20479;-72
2023/08/19 11:08:18;;;;;;;4.90;4.53;;;44.20;34.30;;;;;;5048478;28;20399;-71
2023/08/19 11:10:46;;;;;;;5.57;5.07;;;43.50;35.60;;;;;;5055305;28;20432;-71
2023/08/19 11:13:12;;;;;;;4.10;3.80;;;44.90;38.20;;;;;;5054494;28;20477;-74
2023/08/19 11:15:38;;;;;;;4.03;3.63;;;48.40;36.20;;;;;;5054234;28;21030;-72
2023/08/19 11:18:04;;;;;;;7.37;5.07;;;50.30;33.00;;;;;;5055264;28;20433;-71
2023/08/19 11:20:30;;;;;;;4.53;4.07;;;51.00;31.90;;;;;;5046121;28;20957;-71
2023/08/19 11:22:55;;;;;;;5.27;4.87;;;51.40;31.60;;;;;;5050463;28;20195;-74
2023/08/19 11:25:21;;;;;;;5.77;4.70;;;52.30;30.60;;;;;;5054947;28;20771;-73
2023/08/19 11:27:47;;;;;;;7.80;5.30;;;51.60;30.10;;;;;;5055287;28;20167;-74
2023/08/19 11:30:18;;;;;;;5.30;4.80;;;50.30;30.60;;;;;;5041997;28;20194;-74
2023/08/19 11:32:47;;;;;;;8.00;4.93;;;49.10;31.00;;;;;;5044808;28;20454;-71
2023/08/19 11:35:13;;;;;;;6.03;4.83;;;48.70;32.60;;;;;;5054663;28;20500;-71
2023/08/19 11:37:41;;;;;;;5.43;5.03;;;47.90;33.20;;;;;;5054820;28;20951;-71
2023/08/19 11:40:08;;;;;;;6.03;5.33;;;46.80;33.80;;;;;;5055002;28;20651;-74
2023/08/19 11:42:33;;;;;;;5.50;5.00;;;45.60;34.70;;;;;;5054808;28;20406;-73
2023/08/19 11:44:59;;;;;;;5.40;5.03;;;44.50;36.00;;;;;;5054745;28;20384;-73
2023/08/19 11:47:25;;;;;;;6.43;5.83;;;43.60;37.10;;;;;;5054829;28;20197;-73
2023/08/19 11:49:51;;;;;;;5.37;4.87;;;42.70;38.20;;;;;;5054799;28;20194;-73
2023/08/19 11:52:20;;;;;;;7.40;5.20;;;42.10;39.80;;;;;;5054678;28;20428;-72
2023/08/19 11:55:07;;;;;;;6.57;5.97;;;42.20;39.90;;;;;;5054741;28;20368;-73
2023/08/19 11:57:34;;;;;;;5.70;5.20;;;41.80;40.20;;;;;;5048329;28;20418;-71
2023/08/19 12:00:00;;;;;;;6.17;5.70;;;41.40;40.80;;;;;;5045694;28;21015;-71
2023/08/19 12:02:26;;;;;;;6.93;6.10;;;41.10;41.60;;;;;;5052080;28;20490;-72
2023/08/19 12:04:53;;;;;;;7.43;5.77;;;40.90;42.00;;;;;;5053787;28;20167;-72
2023/08/19 12:07:28;;;;;;;6.23;5.70;;;40.50;43.20;;;;;;5053766;28;20400;-71
2023/08/19 12:10:00;;;;;;;9.20;6.20;;;41.40;43.60;;;;;;5054366;28;20453;-72
2023/08/19 12:12:26;;;;;;;8.00;6.87;;;42.00;41.80;;;;;;5054234;28;20457;-75
2023/08/19 12:14:52;;;;;;;10.83;9.30;;;41.50;41.40;;;;;;5054290;28;20436;-71
2023/08/19 12:17:18;;;;;;;6.80;6.10;;;40.70;42.40;;;;;;5044030;28;20633;-71
2023/08/19 12:19:45;;;;;;;7.60;6.00;;;39.90;43.50;;;;;;5044880;28;20229;-71
2023/08/19 12:22:11;;;;;;;7.97;7.23;;;39.10;44.90;;;;;;5040191;28;20192;-71
2023/08/19 12:24:37;;;;;;;6.50;5.93;;;38.50;46.40;;;;;;5052637;28;20453;-72
2023/08/19 12:27:03;;;;;;;7.20;6.70;;;37.90;47.80;;;;;;5053690;28;20490;-72
2023/08/19 12:29:28;;;;;;;7.30;6.80;;;37.40;49.00;;;;;;5041810;28;20180;-72
2023/08/19 12:31:54;;;;;;;7.10;6.50;;;36.80;50.40;;;;;;5050243;28;20430;-70
2023/08/19 12:34:20;;;;;;;8.63;6.90;;;36.30;52.00;;;;;;5041902;28;20176;-70
2023/08/19 12:36:45;;;;;;;6.67;6.17;;;35.90;53.90;;;;;;5051652;28;20193;-72
2023/08/19 12:39:11;;;;;;;8.27;7.57;;;35.50;55.40;;;;;;5053942;28;20166;-71
2023/08/19 12:41:37;;;;;;;8.57;7.87;;;35.10;57.10;;;;;;5053660;28;20195;-73
2023/08/19 12:44:03;;;;;;;9.07;8.23;;;34.70;59.50;;;;;;5053869;28;20173;-73